createdAt,value
2023-03-28T00:01:12.621Z,7.74
2023-03-28T00:03:41.819Z,7.77
2023-03-28T00:06:13.185Z,7.75
2023-03-28T00:08:42.303Z,7.73
2023-03-28T00:11:18.209Z,7.73
2023-03-28T00:13:47.765Z,7.69
2023-03-28T00:16:16.780Z,7.69
2023-03-28T00:18:46.206Z,7.67
2023-03-28T00:21:24.263Z,7.64
2023-03-28T00:23:55.171Z,7.61
2023-03-28T00:26:26.299Z,7.61
2023-03-28T00:28:56.196Z,7.62
2023-03-28T00:31:26.201Z,7.58
2023-03-28T00:33:56.120Z,7.54
2023-03-28T00:36:28.793Z,7.55
2023-03-28T00:38:58.498Z,7.52
2023-03-28T00:41:30.674Z,7.50
2023-03-28T00:44:00.721Z,7.48
2023-03-28T00:46:33.755Z,7.46
2023-03-28T00:49:06.780Z,7.45
2023-03-28T00:51:38.859Z,7.46
2023-03-28T00:54:12.467Z,7.42
2023-03-28T00:56:44.424Z,7.33
2023-03-28T00:59:18.127Z,7.23
2023-03-28T01:01:47.824Z,7.19
2023-03-28T01:04:20.163Z,7.14
2023-03-28T01:06:54.458Z,7.13
2023-03-28T01:09:24.806Z,7.05
2023-03-28T01:11:56.396Z,6.96
2023-03-28T01:14:28.533Z,6.91
2023-03-28T01:16:57.599Z,6.82
2023-03-28T01:19:42.221Z,6.80
2023-03-28T01:22:38.051Z,6.74
2023-03-28T01:25:39.145Z,6.66
2023-03-28T01:28:20.552Z,6.56
2023-03-28T01:31:07.940Z,6.52
2023-03-28T01:34:14.811Z,6.48
2023-03-28T01:37:02.637Z,6.44
2023-03-28T01:39:42.468Z,6.39
2023-03-28T01:42:20.136Z,6.38
2023-03-28T01:44:55.170Z,6.39
2023-03-28T01:47:32.833Z,6.36
2023-03-28T01:50:09.860Z,6.36
2023-03-28T01:52:46.540Z,6.33
2023-03-28T01:55:21.430Z,6.31
2023-03-28T01:58:01.454Z,6.33
2023-03-28T02:00:34.201Z,6.32
2023-03-28T02:03:10.951Z,6.32
2023-03-28T02:05:41.714Z,6.33
2023-03-28T02:08:12.949Z,6.31
2023-03-28T02:10:44.312Z,6.32
2023-03-28T02:13:17.465Z,6.31
2023-03-28T02:15:50.307Z,6.32
2023-03-28T02:18:25.022Z,6.30
2023-03-28T02:20:56.759Z,6.29
2023-03-28T02:23:30.601Z,6.30
2023-03-28T02:25:59.750Z,6.31
2023-03-28T02:28:31.837Z,6.29
2023-03-28T02:31:02.168Z,6.33
2023-03-28T02:33:37.320Z,6.34
2023-03-28T02:36:22.502Z,6.34
2023-03-28T02:39:01.996Z,6.34
2023-03-28T02:41:38.299Z,6.35
2023-03-28T02:44:21.578Z,6.36
2023-03-28T02:47:01.492Z,6.39
2023-03-28T02:49:50.533Z,6.40
2023-03-28T02:52:34.483Z,6.41
2023-03-28T02:55:12.889Z,6.40
2023-03-28T02:57:46.403Z,6.39
2023-03-28T03:00:18.609Z,6.39
2023-03-28T03:02:50.895Z,6.36
2023-03-28T03:05:21.046Z,6.37
2023-03-28T03:07:51.685Z,6.38
2023-03-28T03:10:21.473Z,6.39
2023-03-28T03:12:50.306Z,6.35
2023-03-28T03:15:19.406Z,6.34
2023-03-28T03:17:48.389Z,6.28
2023-03-28T03:20:18.568Z,6.26
2023-03-28T03:22:47.487Z,6.20
2023-03-28T03:25:16.671Z,6.17
2023-03-28T03:27:45.645Z,6.14
2023-03-28T03:30:14.916Z,6.11
2023-03-28T03:32:44.667Z,6.06
2023-03-28T03:35:13.729Z,6.02
2023-03-28T03:37:42.670Z,5.98
2023-03-28T03:40:12.291Z,5.93
2023-03-28T03:42:41.318Z,5.86
2023-03-28T03:45:12.809Z,5.86
2023-03-28T03:47:41.817Z,5.81
2023-03-28T03:50:13.153Z,5.78
2023-03-28T03:52:42.222Z,5.79
2023-03-28T03:55:11.706Z,5.79
2023-03-28T03:57:41.054Z,5.83
2023-03-28T04:00:12.710Z,5.83
2023-03-28T04:02:41.821Z,5.80
2023-03-28T04:05:11.333Z,5.82
2023-03-28T04:07:40.690Z,5.84
2023-03-28T04:10:11.042Z,5.85
2023-03-28T04:12:40.203Z,5.82
2023-03-28T04:15:11.087Z,5.81
2023-03-28T04:17:40.731Z,5.82
2023-03-28T04:20:14.690Z,5.84
2023-03-28T04:22:46.108Z,5.81
2023-03-28T04:25:17.419Z,5.80
2023-03-28T04:27:46.919Z,5.78
2023-03-28T04:30:17.218Z,5.77
2023-03-28T04:32:49.942Z,5.73
2023-03-28T04:35:18.967Z,5.70
2023-03-28T04:37:48.802Z,5.70
2023-03-28T04:40:18.016Z,5.69
2023-03-28T04:42:47.188Z,5.68
2023-03-28T04:45:17.995Z,5.66
2023-03-28T04:47:48.454Z,5.62
2023-03-28T04:50:17.705Z,5.63
2023-03-28T04:52:46.787Z,5.62
2023-03-28T04:55:16.134Z,5.59
2023-03-28T04:57:45.439Z,5.51
2023-03-28T05:00:16.483Z,5.50
2023-03-28T05:02:45.626Z,5.48
2023-03-28T05:05:15.389Z,5.53
2023-03-28T05:07:44.547Z,5.56
2023-03-28T05:10:14.263Z,5.52
2023-03-28T05:12:43.694Z,5.50
2023-03-28T05:15:22.936Z,5.50
2023-03-28T05:17:52.498Z,5.53
2023-03-28T05:20:21.824Z,5.54
2023-03-28T05:22:51.055Z,5.55
2023-03-28T05:25:21.374Z,5.51
2023-03-28T05:27:50.752Z,5.46
2023-03-28T05:30:20.610Z,5.48
2023-03-28T05:32:49.696Z,5.47
2023-03-28T05:35:18.965Z,5.41
2023-03-28T05:37:47.829Z,5.37
2023-03-28T05:40:16.945Z,5.39
2023-03-28T05:42:46.004Z,5.45
2023-03-28T05:45:15.179Z,5.52
2023-03-28T05:47:44.220Z,5.59
2023-03-28T05:50:13.274Z,5.60
2023-03-28T05:52:42.238Z,5.63
2023-03-28T05:55:11.414Z,5.68
2023-03-28T05:57:40.482Z,5.69
2023-03-28T06:00:13.253Z,5.66
2023-03-28T06:02:43.206Z,5.66
2023-03-28T06:05:13.612Z,5.64
2023-03-28T06:07:43.281Z,5.66
2023-03-28T06:10:14.978Z,5.69
2023-03-28T06:12:44.266Z,5.69
2023-03-28T06:15:13.572Z,5.66
2023-03-28T06:17:42.603Z,5.68
2023-03-28T06:20:12.876Z,5.68
2023-03-28T06:22:41.870Z,5.70
2023-03-28T06:25:11.570Z,5.76
2023-03-28T06:27:40.666Z,5.81
2023-03-28T06:30:12.179Z,5.79
2023-03-28T06:32:41.207Z,5.84
2023-03-28T06:35:10.869Z,5.90
2023-03-28T06:37:39.849Z,5.97
2023-03-28T06:40:10.561Z,6.03
2023-03-28T06:42:39.660Z,6.03
2023-03-28T06:45:10.936Z,6.02
2023-03-28T06:47:40.049Z,5.94
2023-03-28T06:50:10.655Z,5.87
2023-03-28T06:52:39.902Z,5.87
2023-03-28T06:55:10.150Z,5.89
2023-03-28T06:57:39.803Z,5.92
2023-03-28T07:00:11.313Z,5.99
2023-03-28T07:02:40.434Z,6.09
2023-03-28T07:05:10.779Z,6.19
2023-03-28T07:07:40.752Z,6.29
2023-03-28T07:10:11.046Z,6.35
2023-03-28T07:12:40.093Z,6.42
2023-03-28T07:15:10.962Z,6.49
2023-03-28T07:17:39.884Z,6.56
2023-03-28T07:20:10.395Z,6.62
2023-03-28T07:22:39.368Z,6.64
2023-03-28T07:25:09.764Z,6.63
2023-03-28T07:27:38.771Z,6.50
2023-03-28T07:30:09.972Z,6.44
2023-03-28T07:32:48.119Z,6.46
2023-03-28T07:35:21.469Z,6.47
2023-03-28T07:37:50.491Z,6.46
2023-03-28T07:40:19.570Z,6.44
2023-03-28T07:42:50.081Z,6.42
2023-03-28T07:45:19.080Z,6.43
2023-03-28T07:47:47.977Z,6.44
2023-03-28T07:50:17.298Z,6.44
2023-03-28T07:52:47.000Z,6.43
2023-03-28T07:55:16.709Z,6.41
2023-03-28T07:57:46.406Z,6.42
2023-03-28T08:00:17.087Z,6.41
2023-03-28T08:02:46.128Z,6.44
2023-03-28T08:05:15.446Z,6.48
2023-03-28T08:07:46.552Z,6.49
2023-03-28T08:10:15.698Z,6.52
2023-03-28T08:12:44.794Z,6.58
2023-03-28T08:15:13.769Z,6.64
2023-03-28T08:17:42.725Z,6.68
2023-03-28T08:20:13.278Z,6.72
2023-03-28T08:22:42.339Z,6.74
2023-03-28T08:25:12.125Z,6.83
2023-03-28T08:27:41.248Z,6.88
2023-03-28T08:30:11.304Z,6.91
2023-03-28T08:32:40.990Z,6.91
2023-03-28T08:35:10.548Z,6.90
2023-03-28T08:37:39.612Z,6.88
2023-03-28T08:40:15.567Z,6.89
2023-03-28T08:42:57.520Z,6.91
2023-03-28T08:45:38.334Z,6.93
2023-03-28T08:48:18.012Z,6.96
2023-03-28T08:50:50.952Z,6.98
2023-03-28T08:53:26.415Z,7.02
2023-03-28T08:55:57.391Z,7.04
2023-03-28T08:58:34.090Z,7.06
2023-03-28T09:01:03.773Z,7.10
2023-03-28T09:03:35.687Z,7.14
2023-03-28T09:06:15.650Z,7.15
2023-03-28T09:09:04.286Z,7.19
2023-03-28T09:11:45.678Z,7.21
2023-03-28T09:14:39.169Z,7.22
2023-03-28T09:17:14.364Z,7.20
2023-03-28T09:20:05.980Z,7.19
2023-03-28T09:22:44.832Z,7.18
2023-03-28T09:25:29.023Z,7.18
2023-03-28T09:28:06.541Z,7.26
2023-03-28T09:30:37.926Z,7.30
2023-03-28T09:33:15.535Z,7.29
2023-03-28T09:35:46.868Z,7.29
2023-03-28T09:38:21.808Z,7.31
2023-03-28T09:40:55.106Z,7.32
2023-03-28T09:43:31.435Z,7.37
2023-03-28T09:46:04.391Z,7.40
2023-03-28T09:48:35.751Z,7.43
2023-03-28T09:51:06.653Z,7.45
2023-03-28T09:53:37.730Z,7.44
2023-03-28T09:56:14.464Z,7.49
2023-03-28T09:58:51.707Z,7.54
2023-03-28T10:01:41.101Z,7.62
2023-03-28T10:04:13.735Z,7.70
2023-03-28T10:06:44.034Z,7.76
2023-03-28T10:09:21.789Z,7.83
2023-03-28T10:11:54.272Z,7.84
2023-03-28T10:14:35.622Z,7.88
2023-03-28T10:17:07.769Z,7.95
2023-03-28T10:19:40.540Z,8.00
2023-03-28T10:22:15.585Z,8.11
2023-03-28T10:24:47.387Z,8.23
2023-03-28T10:27:23.335Z,8.35
2023-03-28T10:29:54.848Z,8.42
2023-03-28T10:32:28.814Z,8.46
2023-03-28T10:35:03.036Z,8.48
2023-03-28T10:37:34.049Z,8.49
2023-03-28T10:40:07.178Z,8.47
2023-03-28T10:42:44.373Z,8.44
2023-03-28T10:45:23.231Z,8.41
2023-03-28T10:47:57.706Z,8.36
2023-03-28T10:50:36.656Z,8.36
2023-03-28T10:53:26.583Z,8.38
2023-03-28T10:56:10.329Z,8.38
2023-03-28T10:58:42.378Z,8.36
2023-03-28T11:01:18.882Z,8.35
2023-03-28T11:04:04.458Z,8.33
2023-03-28T11:06:43.589Z,8.34
2023-03-28T11:09:22.211Z,8.37
2023-03-28T11:12:02.927Z,8.41
2023-03-28T11:14:47.468Z,8.40
2023-03-28T11:17:29.039Z,8.41
2023-03-28T11:20:22.701Z,8.44
2023-03-28T11:23:06.483Z,8.39
2023-03-28T11:25:46.292Z,8.31
2023-03-28T11:28:26.420Z,8.28
2023-03-28T11:30:58.594Z,8.22
2023-03-28T11:33:32.530Z,8.26
2023-03-28T11:36:07.801Z,8.25
2023-03-28T11:38:40.843Z,8.22
2023-03-28T11:41:13.218Z,8.20
2023-03-28T11:43:47.510Z,8.16
2023-03-28T11:46:22.713Z,8.15
2023-03-28T11:49:00.333Z,8.14
2023-03-28T11:51:36.012Z,8.11
2023-03-28T11:54:12.020Z,8.08
2023-03-28T11:56:51.904Z,8.08
2023-03-28T11:59:27.297Z,8.11
2023-03-28T12:02:05.839Z,8.13
2023-03-28T12:04:42.548Z,8.15
2023-03-28T12:07:18.531Z,8.20
2023-03-28T12:10:00.502Z,8.21
2023-03-28T12:12:33.272Z,8.23
2023-03-28T12:15:06.855Z,8.26
2023-03-28T12:17:40.553Z,8.30
2023-03-28T12:20:28.457Z,8.31
2023-03-28T12:23:02.824Z,8.31
2023-03-28T12:25:38.786Z,8.31
2023-03-28T12:28:15.825Z,8.29
2023-03-28T12:30:50.951Z,8.28
2023-03-28T12:33:28.798Z,8.30
2023-03-28T12:36:07.072Z,8.29
2023-03-28T12:38:42.505Z,8.29
2023-03-28T12:41:16.729Z,8.31
2023-03-28T12:43:51.302Z,8.32
2023-03-28T12:46:26.092Z,8.35
2023-03-28T12:48:59.958Z,8.40
2023-03-28T12:51:34.900Z,8.41
2023-03-28T12:54:22.370Z,8.44
2023-03-28T12:57:10.627Z,8.47
2023-03-28T12:59:56.660Z,8.47
2023-03-28T13:02:31.545Z,8.44
2023-03-28T13:05:09.822Z,8.43
2023-03-28T13:07:56.103Z,8.44
2023-03-28T13:10:35.161Z,8.43
2023-03-28T13:13:19.031Z,8.45
2023-03-28T13:16:01.595Z,8.45
2023-03-28T13:18:33.304Z,8.43
2023-03-28T13:21:06.592Z,8.47
2023-03-28T13:23:46.288Z,8.53
2023-03-28T13:26:15.346Z,8.55
2023-03-28T13:28:46.757Z,8.54
2023-03-28T13:31:24.244Z,8.55
2023-03-28T13:33:59.306Z,8.59
2023-03-28T13:36:30.213Z,8.63
2023-03-28T13:39:09.471Z,8.67
2023-03-28T13:41:59.815Z,8.65
2023-03-28T13:44:39.716Z,8.64
2023-03-28T13:47:14.582Z,8.64
2023-03-28T13:49:48.890Z,8.64
2023-03-28T13:52:21.701Z,8.63
2023-03-28T13:54:53.811Z,8.57
2023-03-28T13:57:25.756Z,8.54
2023-03-28T13:59:58.969Z,8.54
2023-03-28T14:02:38.295Z,8.53
2023-03-28T14:05:19.939Z,8.50
2023-03-28T14:07:50.222Z,8.47
2023-03-28T14:10:28.230Z,8.45
2023-03-28T14:13:01.122Z,8.44
2023-03-28T14:15:33.236Z,8.44
2023-03-28T14:18:03.691Z,8.43
2023-03-28T14:20:34.151Z,8.43
2023-03-28T14:23:04.974Z,8.44
2023-03-28T14:25:34.408Z,8.48
2023-03-28T14:28:08.851Z,8.53
2023-03-28T14:30:42.605Z,8.53
2023-03-28T14:33:21.020Z,8.52
2023-03-28T14:36:01.108Z,8.51
2023-03-28T14:38:33.010Z,8.47
2023-03-28T14:41:08.981Z,8.39
2023-03-28T14:43:38.176Z,8.35
2023-03-28T14:46:10.406Z,8.32
2023-03-28T14:48:41.696Z,8.26
2023-03-28T14:51:13.698Z,8.26
2023-03-28T14:53:46.739Z,8.29
2023-03-28T14:56:22.067Z,8.30
2023-03-28T14:58:52.922Z,8.28
2023-03-28T15:01:24.078Z,8.28
2023-03-28T15:03:57.917Z,8.31
2023-03-28T15:06:28.637Z,8.34
2023-03-28T15:09:00.458Z,8.34
2023-03-28T15:11:32.282Z,8.34
2023-03-28T15:14:04.313Z,8.32
2023-03-28T15:16:38.906Z,8.28
2023-03-28T15:19:17.890Z,8.27
2023-03-28T15:21:53.509Z,8.28
2023-03-28T15:24:24.939Z,8.29
2023-03-28T15:26:57.898Z,8.17
2023-03-28T15:29:29.136Z,7.95
2023-03-28T15:32:04.310Z,7.77
2023-03-28T15:34:44.369Z,7.66
2023-03-28T15:37:18.490Z,7.58
2023-03-28T15:39:50.441Z,7.44
2023-03-28T15:42:36.586Z,7.21
2023-03-28T15:45:23.778Z,7.04
2023-03-28T15:47:55.023Z,6.99
2023-03-28T15:50:32.632Z,7.00
2023-03-28T15:53:05.115Z,7.01
2023-03-28T15:55:35.101Z,6.93
2023-03-28T15:58:06.204Z,6.82
2023-03-28T16:00:41.807Z,6.70
2023-03-28T16:03:35.186Z,6.55
2023-03-28T16:06:31.574Z,6.40
2023-03-28T16:09:18.535Z,6.30
2023-03-28T16:11:50.174Z,6.17
2023-03-28T16:14:20.528Z,6.10
2023-03-28T16:16:54.595Z,6.05
2023-03-28T16:19:25.937Z,5.99
2023-03-28T16:21:55.228Z,5.94
2023-03-28T16:24:24.856Z,5.91
2023-03-28T16:26:53.982Z,5.90
2023-03-28T16:29:23.261Z,5.88
2023-03-28T16:31:52.274Z,5.87
2023-03-28T16:34:21.349Z,5.85
2023-03-28T16:36:50.625Z,5.84
2023-03-28T16:39:19.686Z,5.84
2023-03-28T16:41:48.580Z,5.86
2023-03-28T16:44:17.469Z,5.89
2023-03-28T16:46:46.428Z,5.90
2023-03-28T16:49:16.013Z,5.89
2023-03-28T16:51:45.653Z,5.87
2023-03-28T16:54:14.917Z,5.86
2023-03-28T16:56:43.968Z,5.83
2023-03-28T16:59:13.226Z,5.81
2023-03-28T17:01:45.690Z,5.80
2023-03-28T17:04:14.934Z,5.78
2023-03-28T17:06:44.351Z,5.78
2023-03-28T17:09:13.323Z,5.79
2023-03-28T17:11:42.527Z,5.81
2023-03-28T17:14:11.472Z,5.79
2023-03-28T17:16:40.848Z,5.75
2023-03-28T17:19:09.811Z,5.67
2023-03-28T17:21:38.685Z,5.59
2023-03-28T17:24:10.837Z,5.53
2023-03-28T17:26:40.024Z,5.47
2023-03-28T17:29:11.366Z,5.42
2023-03-28T17:31:40.377Z,5.37
2023-03-28T17:34:10.582Z,5.32
2023-03-28T17:36:40.507Z,5.24
2023-03-28T17:39:13.537Z,5.21
2023-03-28T17:41:45.314Z,5.16
2023-03-28T17:44:14.393Z,5.11
2023-03-28T17:46:43.971Z,5.10
2023-03-28T17:49:12.943Z,5.10
2023-03-28T17:51:42.132Z,5.09
2023-03-28T17:54:14.431Z,5.07
2023-03-28T17:56:44.065Z,5.04
2023-03-28T17:59:13.400Z,5.04
2023-03-28T18:01:42.466Z,5.05
2023-03-28T18:04:12.458Z,5.06
2023-03-28T18:06:41.647Z,5.07
2023-03-28T18:09:11.047Z,5.08
2023-03-28T18:11:40.933Z,5.09
2023-03-28T18:14:10.755Z,5.11
2023-03-28T18:16:40.135Z,5.13
2023-03-28T18:19:16.926Z,5.18
2023-03-28T18:21:48.854Z,5.21
2023-03-28T18:24:19.928Z,5.24
2023-03-28T18:26:49.574Z,5.25
2023-03-28T18:29:18.944Z,5.27
2023-03-28T18:31:48.092Z,5.30
2023-03-28T18:34:17.479Z,5.32
2023-03-28T18:36:47.693Z,5.31
2023-03-28T18:39:16.858Z,5.33
2023-03-28T18:41:46.050Z,5.36
2023-03-28T18:44:15.258Z,5.37
2023-03-28T18:46:44.464Z,5.37
2023-03-28T18:49:13.630Z,5.40
2023-03-28T18:51:42.767Z,5.47
2023-03-28T18:54:13.099Z,5.50
2023-03-28T18:56:46.013Z,5.49
2023-03-28T18:59:15.398Z,5.47
2023-03-28T19:01:50.647Z,5.44
2023-03-28T19:04:20.559Z,5.40
2023-03-28T19:06:51.263Z,5.43
2023-03-28T19:09:20.635Z,5.44
2023-03-28T19:11:54.583Z,5.46
2023-03-28T19:14:24.163Z,5.47
2023-03-28T19:16:53.397Z,5.48
2023-03-28T19:19:23.638Z,5.51
2023-03-28T19:21:52.723Z,5.54
2023-03-28T19:24:22.943Z,5.54
2023-03-28T19:26:52.725Z,5.58
2023-03-28T19:29:22.125Z,5.59
2023-03-28T19:31:52.299Z,5.59
2023-03-28T19:34:21.503Z,5.62
2023-03-28T19:36:51.239Z,5.66
2023-03-28T19:39:20.598Z,5.64
2023-03-28T19:41:49.461Z,5.61
2023-03-28T19:44:18.438Z,5.61
2023-03-28T19:46:47.483Z,5.63
2023-03-28T19:49:16.704Z,5.65
2023-03-28T19:51:45.652Z,5.66
2023-03-28T19:54:14.705Z,5.67
2023-03-28T19:56:44.257Z,5.59
2023-03-28T19:59:13.520Z,5.46
2023-03-28T20:01:42.674Z,5.35
2023-03-28T20:04:11.931Z,5.30
2023-03-28T20:06:41.011Z,5.24
2023-03-28T20:09:10.333Z,5.16
2023-03-28T20:11:41.453Z,5.05
2023-03-28T20:14:10.813Z,4.96
2023-03-28T20:16:39.716Z,4.88
2023-03-28T20:19:08.678Z,4.79
2023-03-28T20:21:37.728Z,4.71
2023-03-28T20:24:08.152Z,4.61
2023-03-28T20:26:37.132Z,4.51
2023-03-28T20:29:09.738Z,4.43
2023-03-28T20:31:38.752Z,4.33
2023-03-28T20:34:07.774Z,4.24
2023-03-28T20:36:37.516Z,4.10
2023-03-28T20:39:06.451Z,4.02
2023-03-28T20:41:36.901Z,3.97
2023-03-28T20:44:05.788Z,3.92
2023-03-28T20:46:37.447Z,3.87
2023-03-28T20:49:07.299Z,3.81
2023-03-28T20:51:39.032Z,3.84
2023-03-28T20:54:09.091Z,3.83
2023-03-28T20:56:38.089Z,3.81
2023-03-28T20:59:07.260Z,3.79
2023-03-28T21:01:45.316Z,3.77
2023-03-28T21:04:14.503Z,3.73
2023-03-28T21:06:45.439Z,3.74
2023-03-28T21:09:15.507Z,3.79
2023-03-28T21:11:44.776Z,3.81
2023-03-28T21:14:14.836Z,3.87
2023-03-28T21:16:44.748Z,3.93
2023-03-28T21:19:13.956Z,3.95
2023-03-28T21:21:42.975Z,3.93
2023-03-28T21:24:11.973Z,3.90
2023-03-28T21:26:41.219Z,3.87
2023-03-28T21:29:10.192Z,3.83
2023-03-28T21:31:39.254Z,3.74
2023-03-28T21:34:08.423Z,3.64
2023-03-28T21:36:37.322Z,3.57
2023-03-28T21:39:07.364Z,3.51
2023-03-28T21:41:37.578Z,3.48
2023-03-28T21:44:06.794Z,3.51
2023-03-28T21:46:35.856Z,3.53
2023-03-28T21:49:05.005Z,3.50
2023-03-28T21:51:35.504Z,3.49
2023-03-28T21:54:05.255Z,3.52
2023-03-28T21:56:33.810Z,3.54
2023-03-28T21:59:02.824Z,3.53
2023-03-28T22:01:31.867Z,3.53
2023-03-28T22:04:00.916Z,3.54
2023-03-28T22:06:29.980Z,3.55
2023-03-28T22:08:59.069Z,3.57
2023-03-28T22:11:28.602Z,3.56
2023-03-28T22:14:01.690Z,3.54
2023-03-28T22:16:32.996Z,3.53
2023-03-28T22:19:02.401Z,3.52
2023-03-28T22:21:31.791Z,3.49
2023-03-28T22:24:02.938Z,3.46
2023-03-28T22:26:31.770Z,3.43
2023-03-28T22:29:00.736Z,3.44
2023-03-28T22:31:30.177Z,3.41
2023-03-28T22:33:59.197Z,3.40
2023-03-28T22:36:28.263Z,3.38
2023-03-28T22:38:57.339Z,3.36
2023-03-28T22:41:31.249Z,3.37
2023-03-28T22:44:00.255Z,3.39
2023-03-28T22:46:29.363Z,3.39
2023-03-28T22:48:58.699Z,3.42
2023-03-28T22:51:29.268Z,3.43
2023-03-28T22:54:01.218Z,3.47
2023-03-28T22:56:30.148Z,3.50
2023-03-28T22:59:00.529Z,3.51
2023-03-28T23:01:29.683Z,3.57
2023-03-28T23:03:58.667Z,3.63
2023-03-28T23:06:28.091Z,3.67
2023-03-28T23:08:58.138Z,3.73
2023-03-28T23:11:27.339Z,3.79
2023-03-28T23:13:56.357Z,3.86
2023-03-28T23:16:25.420Z,3.91
2023-03-28T23:18:54.652Z,3.94
2023-03-28T23:21:24.128Z,3.95
2023-03-28T23:23:53.929Z,3.94
2023-03-28T23:26:23.134Z,3.90
2023-03-28T23:28:52.050Z,3.82
2023-03-28T23:31:21.186Z,3.72
2023-03-28T23:33:50.522Z,3.62
2023-03-28T23:36:20.395Z,3.57
2023-03-28T23:38:49.681Z,3.55
2023-03-28T23:41:18.647Z,3.50
2023-03-28T23:43:47.621Z,3.42
2023-03-28T23:46:16.595Z,3.37
2023-03-28T23:48:45.496Z,3.32
2023-03-28T23:51:14.816Z,3.32
2023-03-28T23:53:43.678Z,3.24
2023-03-28T23:56:12.827Z,3.27
2023-03-28T23:58:42.279Z,3.34
